sensor_id;sensor_type;location;lat;lon;timestamp;temperature;humidity
52044;DHT22;38053;53.100;6.078;2023-03-03T00:01:14;1.70;99.90
52044;DHT22;38053;53.100;6.078;2023-03-03T00:03:40;1.70;99.90
52044;DHT22;38053;53.100;6.078;2023-03-03T00:06:09;1.60;99.90
52044;DHT22;38053;53.100;6.078;2023-03-03T00:08:35;1.60;99.90
52044;DHT22;38053;53.100;6.078;2023-03-03T00:11:01;1.60;99.90
52044;DHT22;38053;53.100;6.078;2023-03-03T00:13:30;1.50;99.90
52044;DHT22;38053;53.100;6.078;2023-03-03T00:16:16;1.50;99.90
52044;DHT22;38053;53.100;6.078;2023-03-03T00:18:47;1.40;99.90
52044;DHT22;38053;53.100;6.078;2023-03-03T00:21:29;1.40;99.90
52044;DHT22;38053;53.100;6.078;2023-03-03T00:24:23;1.40;99.90
52044;DHT22;38053;53.100;6.078;2023-03-03T00:26:51;1.30;99.90
52044;DHT22;38053;53.100;6.078;2023-03-03T00:29:33;1.20;99.90
52044;DHT22;38053;53.100;6.078;2023-03-03T00:34:53;1.10;99.90
52044;DHT22;38053;53.100;6.078;2023-03-03T00:37:33;1.00;99.90
52044;DHT22;38053;53.100;6.078;2023-03-03T00:40:30;1.00;99.90
52044;DHT22;38053;53.100;6.078;2023-03-03T00:43:25;0.90;99.90
52044;DHT22;38053;53.100;6.078;2023-03-03T00:45:54;0.90;99.90
52044;DHT22;38053;53.100;6.078;2023-03-03T00:48:40;0.80;99.90
52044;DHT22;38053;53.100;6.078;2023-03-03T00:51:30;0.80;99.90
52044;DHT22;38053;53.100;6.078;2023-03-03T00:54:00;0.80;99.90
52044;DHT22;38053;53.100;6.078;2023-03-03T00:56:26;0.70;99.90
52044;DHT22;38053;53.100;6.078;2023-03-03T00:58:52;0.70;99.90
52044;DHT22;38053;53.100;6.078;2023-03-03T01:01:18;0.70;99.90
52044;DHT22;38053;53.100;6.078;2023-03-03T01:03:44;0.70;99.90
52044;DHT22;38053;53.100;6.078;2023-03-03T01:06:11;0.60;99.90
52044;DHT22;38053;53.100;6.078;2023-03-03T01:08:37;0.60;99.90
52044;DHT22;38053;53.100;6.078;2023-03-03T01:11:13;0.60;99.90
52044;DHT22;38053;53.100;6.078;2023-03-03T01:13:42;0.50;99.90
52044;DHT22;38053;53.100;6.078;2023-03-03T01:16:08;0.50;99.90
52044;DHT22;38053;53.100;6.078;2023-03-03T01:18:36;0.40;99.90
52044;DHT22;38053;53.100;6.078;2023-03-03T01:21:02;0.40;99.90
52044;DHT22;38053;53.100;6.078;2023-03-03T01:23:28;0.30;99.90
52044;DHT22;38053;53.100;6.078;2023-03-03T01:25:54;0.30;99.90
52044;DHT22;38053;53.100;6.078;2023-03-03T01:28:20;0.30;99.90
52044;DHT22;38053;53.100;6.078;2023-03-03T01:30:47;0.30;99.90
52044;DHT22;38053;53.100;6.078;2023-03-03T01:33:13;0.20;99.90
52044;DHT22;38053;53.100;6.078;2023-03-03T01:35:46;0.20;99.90
52044;DHT22;38053;53.100;6.078;2023-03-03T01:38:16;0.10;99.90
52044;DHT22;38053;53.100;6.078;2023-03-03T01:40:52;0.10;99.90
52044;DHT22;38053;53.100;6.078;2023-03-03T01:43:18;0.10;99.90
52044;DHT22;38053;53.100;6.078;2023-03-03T01:48:40;0.00;99.90
52044;DHT22;38053;53.100;6.078;2023-03-03T01:51:11;0.00;99.90
52044;DHT22;38053;53.100;6.078;2023-03-03T01:53:52;0.00;99.90
52044;DHT22;38053;53.100;6.078;2023-03-03T01:56:19;0.00;99.90
52044;DHT22;38053;53.100;6.078;2023-03-03T02:01:21;-0.10;99.90
52044;DHT22;38053;53.100;6.078;2023-03-03T02:03:47;-0.10;99.90
52044;DHT22;38053;53.100;6.078;2023-03-03T02:06:15;-0.20;99.90
52044;DHT22;38053;53.100;6.078;2023-03-03T02:09:04;-0.20;99.90
52044;DHT22;38053;53.100;6.078;2023-03-03T02:11:37;-0.20;99.90
52044;DHT22;38053;53.100;6.078;2023-03-03T02:14:04;-0.30;99.90
52044;DHT22;38053;53.100;6.078;2023-03-03T02:16:30;-0.30;99.90
52044;DHT22;38053;53.100;6.078;2023-03-03T02:18:56;-0.40;99.90
52044;DHT22;38053;53.100;6.078;2023-03-03T02:21:23;-0.40;99.90
52044;DHT22;38053;53.100;6.078;2023-03-03T02:24:00;-0.40;99.90
52044;DHT22;38053;53.100;6.078;2023-03-03T02:26:29;-0.50;99.90
52044;DHT22;38053;53.100;6.078;2023-03-03T02:28:56;-0.50;99.90
52044;DHT22;38053;53.100;6.078;2023-03-03T02:31:24;-0.50;99.90
52044;DHT22;38053;53.100;6.078;2023-03-03T02:33:52;-0.50;99.90
52044;DHT22;38053;53.100;6.078;2023-03-03T02:36:30;-0.50;99.90
52044;DHT22;38053;53.100;6.078;2023-03-03T02:39:17;-0.50;99.90
52044;DHT22;38053;53.100;6.078;2023-03-03T02:42:03;-0.60;99.90
52044;DHT22;38053;53.100;6.078;2023-03-03T02:44:32;-0.60;99.90
52044;DHT22;38053;53.100;6.078;2023-03-03T02:46:59;-0.60;99.90
52044;DHT22;38053;53.100;6.078;2023-03-03T02:49:27;-0.60;99.90
52044;DHT22;38053;53.100;6.078;2023-03-03T02:51:54;-0.60;99.90
52044;DHT22;38053;53.100;6.078;2023-03-03T02:54:21;-0.60;99.90
52044;DHT22;38053;53.100;6.078;2023-03-03T02:56:51;-0.70;99.90
52044;DHT22;38053;53.100;6.078;2023-03-03T02:59:19;-0.70;99.90
52044;DHT22;38053;53.100;6.078;2023-03-03T03:01:46;-0.70;99.90
52044;DHT22;38053;53.100;6.078;2023-03-03T03:04:21;-0.70;99.90
52044;DHT22;38053;53.100;6.078;2023-03-03T03:06:47;-0.70;99.90
52044;DHT22;38053;53.100;6.078;2023-03-03T03:09:14;-0.80;99.90
52044;DHT22;38053;53.100;6.078;2023-03-03T03:11:41;-0.80;99.90
52044;DHT22;38053;53.100;6.078;2023-03-03T03:14:11;-0.80;99.90
52044;DHT22;38053;53.100;6.078;2023-03-03T03:16:37;-0.70;99.90
52044;DHT22;38053;53.100;6.078;2023-03-03T03:19:03;-0.70;99.90
52044;DHT22;38053;53.100;6.078;2023-03-03T03:21:31;-0.80;99.90
52044;DHT22;38053;53.100;6.078;2023-03-03T03:23:57;-0.70;99.90
52044;DHT22;38053;53.100;6.078;2023-03-03T03:26:23;-0.70;99.90
52044;DHT22;38053;53.100;6.078;2023-03-03T03:28:49;-0.70;99.90
52044;DHT22;38053;53.100;6.078;2023-03-03T03:31:19;-0.70;99.90
52044;DHT22;38053;53.100;6.078;2023-03-03T03:33:45;-0.70;99.90
52044;DHT22;38053;53.100;6.078;2023-03-03T03:36:12;-0.70;99.90
52044;DHT22;38053;53.100;6.078;2023-03-03T03:38:38;-0.80;99.90
52044;DHT22;38053;53.100;6.078;2023-03-03T03:41:05;-0.80;99.90
52044;DHT22;38053;53.100;6.078;2023-03-03T03:43:31;-0.80;99.90
52044;DHT22;38053;53.100;6.078;2023-03-03T03:45:56;-0.80;99.90
52044;DHT22;38053;53.100;6.078;2023-03-03T03:48:22;-0.80;99.90
52044;DHT22;38053;53.100;6.078;2023-03-03T03:50:49;-0.80;99.90
52044;DHT22;38053;53.100;6.078;2023-03-03T03:53:16;-0.90;99.90
52044;DHT22;38053;53.100;6.078;2023-03-03T03:55:42;-0.90;99.90
52044;DHT22;38053;53.100;6.078;2023-03-03T03:58:12;-0.90;99.90
52044;DHT22;38053;53.100;6.078;2023-03-03T04:00:40;-0.90;99.90
52044;DHT22;38053;53.100;6.078;2023-03-03T04:03:06;-0.90;99.90
52044;DHT22;38053;53.100;6.078;2023-03-03T04:05:32;-0.90;99.90
52044;DHT22;38053;53.100;6.078;2023-03-03T04:07:58;-1.00;99.90
52044;DHT22;38053;53.100;6.078;2023-03-03T04:10:23;-1.00;99.90
52044;DHT22;38053;53.100;6.078;2023-03-03T04:12:49;-1.00;99.90
52044;DHT22;38053;53.100;6.078;2023-03-03T04:15:15;-1.00;99.90
52044;DHT22;38053;53.100;6.078;2023-03-03T04:17:41;-1.00;99.90
52044;DHT22;38053;53.100;6.078;2023-03-03T04:20:11;-1.00;99.90
52044;DHT22;38053;53.100;6.078;2023-03-03T04:22:37;-1.00;99.90
52044;DHT22;38053;53.100;6.078;2023-03-03T04:25:05;-1.00;99.90
52044;DHT22;38053;53.100;6.078;2023-03-03T04:27:32;-1.00;99.90
52044;DHT22;38053;53.100;6.078;2023-03-03T04:29:59;-1.00;99.90
52044;DHT22;38053;53.100;6.078;2023-03-03T04:32:28;-1.10;99.90
52044;DHT22;38053;53.100;6.078;2023-03-03T04:34:55;-1.10;99.90
52044;DHT22;38053;53.100;6.078;2023-03-03T04:37:21;-1.10;99.90
52044;DHT22;38053;53.100;6.078;2023-03-03T04:39:47;-1.10;99.90
52044;DHT22;38053;53.100;6.078;2023-03-03T04:42:16;-1.10;99.90
52044;DHT22;38053;53.100;6.078;2023-03-03T04:44:42;-1.10;99.90
52044;DHT22;38053;53.100;6.078;2023-03-03T04:47:11;-1.20;99.90
52044;DHT22;38053;53.100;6.078;2023-03-03T04:49:37;-1.20;99.90
52044;DHT22;38053;53.100;6.078;2023-03-03T04:52:03;-1.20;99.90
52044;DHT22;38053;53.100;6.078;2023-03-03T04:54:28;-1.30;99.90
52044;DHT22;38053;53.100;6.078;2023-03-03T04:56:57;-1.30;99.90
52044;DHT22;38053;53.100;6.078;2023-03-03T04:59:23;-1.30;99.90
52044;DHT22;38053;53.100;6.078;2023-03-03T05:01:50;-1.30;99.90
52044;DHT22;38053;53.100;6.078;2023-03-03T05:04:18;-1.30;99.90
52044;DHT22;38053;53.100;6.078;2023-03-03T05:06:44;-1.30;99.90
52044;DHT22;38053;53.100;6.078;2023-03-03T05:09:10;-1.30;99.90
52044;DHT22;38053;53.100;6.078;2023-03-03T05:11:35;-1.40;99.90
52044;DHT22;38053;53.100;6.078;2023-03-03T05:14:02;-1.40;99.90
52044;DHT22;38053;53.100;6.078;2023-03-03T05:16:28;-1.40;99.90
52044;DHT22;38053;53.100;6.078;2023-03-03T05:18:54;-1.40;99.90
52044;DHT22;38053;53.100;6.078;2023-03-03T05:21:20;-1.30;99.90
52044;DHT22;38053;53.100;6.078;2023-03-03T05:23:46;-1.30;99.90
52044;DHT22;38053;53.100;6.078;2023-03-03T05:26:13;-1.30;99.90
52044;DHT22;38053;53.100;6.078;2023-03-03T05:28:39;-1.30;99.90
52044;DHT22;38053;53.100;6.078;2023-03-03T05:31:08;-1.20;99.90
52044;DHT22;38053;53.100;6.078;2023-03-03T05:33:34;-1.20;99.90
52044;DHT22;38053;53.100;6.078;2023-03-03T05:36:00;-1.30;99.90
52044;DHT22;38053;53.100;6.078;2023-03-03T05:38:26;-1.30;99.90
52044;DHT22;38053;53.100;6.078;2023-03-03T05:40:52;-1.20;99.90
52044;DHT22;38053;53.100;6.078;2023-03-03T05:43:20;-1.20;99.90
52044;DHT22;38053;53.100;6.078;2023-03-03T05:45:56;-1.20;99.90
52044;DHT22;38053;53.100;6.078;2023-03-03T05:48:25;-1.10;99.90
52044;DHT22;38053;53.100;6.078;2023-03-03T05:50:51;-1.20;99.90
52044;DHT22;38053;53.100;6.078;2023-03-03T05:53:17;-1.20;99.90
52044;DHT22;38053;53.100;6.078;2023-03-03T05:55:42;-1.20;99.90
52044;DHT22;38053;53.100;6.078;2023-03-03T05:58:08;-1.20;99.90
52044;DHT22;38053;53.100;6.078;2023-03-03T06:00:37;-1.30;99.90
52044;DHT22;38053;53.100;6.078;2023-03-03T06:03:03;-1.30;99.90
52044;DHT22;38053;53.100;6.078;2023-03-03T06:05:29;-1.30;99.90
52044;DHT22;38053;53.100;6.078;2023-03-03T06:07:54;-1.40;99.90
52044;DHT22;38053;53.100;6.078;2023-03-03T06:10:20;-1.40;99.90
52044;DHT22;38053;53.100;6.078;2023-03-03T06:12:49;-1.40;99.90
52044;DHT22;38053;53.100;6.078;2023-03-03T06:15:14;-1.40;99.90
52044;DHT22;38053;53.100;6.078;2023-03-03T06:17:43;-1.40;99.90
52044;DHT22;38053;53.100;6.078;2023-03-03T06:20:09;-1.40;99.90
52044;DHT22;38053;53.100;6.078;2023-03-03T06:22:38;-1.40;99.90
52044;DHT22;38053;53.100;6.078;2023-03-03T06:25:05;-1.40;99.90
52044;DHT22;38053;53.100;6.078;2023-03-03T06:27:31;-1.50;99.90
52044;DHT22;38053;53.100;6.078;2023-03-03T06:29:57;-1.40;99.90
52044;DHT22;38053;53.100;6.078;2023-03-03T06:32:22;-1.50;99.90
52044;DHT22;38053;53.100;6.078;2023-03-03T06:34:48;-1.50;99.90
52044;DHT22;38053;53.100;6.078;2023-03-03T06:37:14;-1.50;99.90
52044;DHT22;38053;53.100;6.078;2023-03-03T06:39:40;-1.50;99.90
52044;DHT22;38053;53.100;6.078;2023-03-03T06:42:09;-1.50;99.90
52044;DHT22;38053;53.100;6.078;2023-03-03T06:44:35;-1.50;99.90
52044;DHT22;38053;53.100;6.078;2023-03-03T06:47:01;-1.50;99.90
52044;DHT22;38053;53.100;6.078;2023-03-03T06:49:26;-1.50;99.90
52044;DHT22;38053;53.100;6.078;2023-03-03T06:51:53;-1.50;99.90
52044;DHT22;38053;53.100;6.078;2023-03-03T06:54:20;-1.50;99.90
52044;DHT22;38053;53.100;6.078;2023-03-03T06:56:48;-1.50;99.90
52044;DHT22;38053;53.100;6.078;2023-03-03T06:59:20;-1.50;99.90
52044;DHT22;38053;53.100;6.078;2023-03-03T07:01:48;-1.40;99.90
52044;DHT22;38053;53.100;6.078;2023-03-03T07:04:27;-1.40;99.90
52044;DHT22;38053;53.100;6.078;2023-03-03T07:06:54;-1.40;99.90
52044;DHT22;38053;53.100;6.078;2023-03-03T07:09:25;-1.30;99.90
52044;DHT22;38053;53.100;6.078;2023-03-03T07:12:01;-1.30;99.90
52044;DHT22;38053;53.100;6.078;2023-03-03T07:14:28;-1.30;99.90
52044;DHT22;38053;53.100;6.078;2023-03-03T07:17:02;-1.20;99.90
52044;DHT22;38053;53.100;6.078;2023-03-03T07:19:34;-1.20;99.90
52044;DHT22;38053;53.100;6.078;2023-03-03T07:22:29;-1.20;99.90
52044;DHT22;38053;53.100;6.078;2023-03-03T07:24:58;-1.10;99.90
52044;DHT22;38053;53.100;6.078;2023-03-03T07:27:33;-1.10;99.90
52044;DHT22;38053;53.100;6.078;2023-03-03T07:30:23;-1.00;99.90
52044;DHT22;38053;53.100;6.078;2023-03-03T07:32:49;-0.90;99.90
52044;DHT22;38053;53.100;6.078;2023-03-03T07:35:38;-0.90;99.90
52044;DHT22;38053;53.100;6.078;2023-03-03T07:38:36;-0.80;99.90
52044;DHT22;38053;53.100;6.078;2023-03-03T07:41:17;-0.70;99.90
52044;DHT22;38053;53.100;6.078;2023-03-03T07:43:58;-0.60;99.90
52044;DHT22;38053;53.100;6.078;2023-03-03T07:51:52;-0.30;99.90
52044;DHT22;38053;53.100;6.078;2023-03-03T07:56:47;-0.10;99.90
52044;DHT22;38053;53.100;6.078;2023-03-03T07:59:21;-0.10;99.90
52044;DHT22;38053;53.100;6.078;2023-03-03T08:01:54;0.00;99.90
52044;DHT22;38053;53.100;6.078;2023-03-03T08:04:36;0.10;99.90
52044;DHT22;38053;53.100;6.078;2023-03-03T08:07:11;0.20;99.90
52044;DHT22;38053;53.100;6.078;2023-03-03T08:09:46;0.40;99.90
52044;DHT22;38053;53.100;6.078;2023-03-03T08:14:41;0.70;99.90
52044;DHT22;38053;53.100;6.078;2023-03-03T08:17:19;0.80;99.90
52044;DHT22;38053;53.100;6.078;2023-03-03T08:19:46;0.90;99.90
52044;DHT22;38053;53.100;6.078;2023-03-03T08:22:18;1.10;99.90
52044;DHT22;38053;53.100;6.078;2023-03-03T08:24:47;1.20;99.90
52044;DHT22;38053;53.100;6.078;2023-03-03T08:27:15;1.40;99.90
52044;DHT22;38053;53.100;6.078;2023-03-03T08:29:41;1.50;99.90
52044;DHT22;38053;53.100;6.078;2023-03-03T08:32:07;1.70;99.90
52044;DHT22;38053;53.100;6.078;2023-03-03T08:34:32;1.80;99.90
52044;DHT22;38053;53.100;6.078;2023-03-03T08:36:58;2.00;99.90
52044;DHT22;38053;53.100;6.078;2023-03-03T08:39:24;2.10;99.90
52044;DHT22;38053;53.100;6.078;2023-03-03T08:41:49;2.30;99.90
52044;DHT22;38053;53.100;6.078;2023-03-03T08:44:18;2.40;99.90
52044;DHT22;38053;53.100;6.078;2023-03-03T08:46:45;2.60;99.90
52044;DHT22;38053;53.100;6.078;2023-03-03T08:49:11;2.60;99.90
52044;DHT22;38053;53.100;6.078;2023-03-03T08:51:37;2.80;99.90
52044;DHT22;38053;53.100;6.078;2023-03-03T08:54:03;2.90;99.90
52044;DHT22;38053;53.100;6.078;2023-03-03T08:56:29;3.10;99.90
52044;DHT22;38053;53.100;6.078;2023-03-03T08:58:55;3.30;99.90
52044;DHT22;38053;53.100;6.078;2023-03-03T09:01:21;3.40;99.90
52044;DHT22;38053;53.100;6.078;2023-03-03T09:03:47;3.50;99.90
52044;DHT22;38053;53.100;6.078;2023-03-03T09:06:22;3.70;99.90
52044;DHT22;38053;53.100;6.078;2023-03-03T09:08:48;3.80;99.90
52044;DHT22;38053;53.100;6.078;2023-03-03T09:11:23;4.00;99.90
52044;DHT22;38053;53.100;6.078;2023-03-03T09:14:11;4.10;99.90
52044;DHT22;38053;53.100;6.078;2023-03-03T09:16:50;4.20;99.90
52044;DHT22;38053;53.100;6.078;2023-03-03T09:19:32;4.40;99.90
52044;DHT22;38053;53.100;6.078;2023-03-03T09:22:08;4.50;99.90
52044;DHT22;38053;53.100;6.078;2023-03-03T09:24:36;4.60;99.90
52044;DHT22;38053;53.100;6.078;2023-03-03T09:27:21;4.70;99.90
52044;DHT22;38053;53.100;6.078;2023-03-03T09:29:49;4.80;99.90
52044;DHT22;38053;53.100;6.078;2023-03-03T09:32:36;5.00;99.90
52044;DHT22;38053;53.100;6.078;2023-03-03T09:35:39;5.10;99.90
52044;DHT22;38053;53.100;6.078;2023-03-03T09:38:34;5.30;99.90
52044;DHT22;38053;53.100;6.078;2023-03-03T09:52:41;6.20;99.90
52044;DHT22;38053;53.100;6.078;2023-03-03T10:04:16;6.00;99.90
52044;DHT22;38053;53.100;6.078;2023-03-03T10:07:09;6.00;99.90
52044;DHT22;38053;53.100;6.078;2023-03-03T10:15:14;6.00;99.90
52044;DHT22;38053;53.100;6.078;2023-03-03T10:37:32;6.80;99.90
52044;DHT22;38053;53.100;6.078;2023-03-03T10:54:21;7.20;99.90
52044;DHT22;38053;53.100;6.078;2023-03-03T10:57:16;7.20;99.90
52044;DHT22;38053;53.100;6.078;2023-03-03T11:00:07;7.10;99.90
52044;DHT22;38053;53.100;6.078;2023-03-03T11:06:12;7.20;99.90
52044;DHT22;38053;53.100;6.078;2023-03-03T11:08:21;7.20;99.90
52044;DHT22;38053;53.100;6.078;2023-03-03T11:11:01;7.40;99.90
52044;DHT22;38053;53.100;6.078;2023-03-03T11:13:43;7.50;99.90
52044;DHT22;38053;53.100;6.078;2023-03-03T11:22:33;7.30;99.90
52044;DHT22;38053;53.100;6.078;2023-03-03T11:28:46;7.20;99.90
52044;DHT22;38053;53.100;6.078;2023-03-03T11:37:03;8.60;99.90
52044;DHT22;38053;53.100;6.078;2023-03-03T11:39:31;8.40;99.90
52044;DHT22;38053;53.100;6.078;2023-03-03T11:44:55;8.30;99.90
52044;DHT22;38053;53.100;6.078;2023-03-03T11:56:24;7.80;99.90
52044;DHT22;38053;53.100;6.078;2023-03-03T11:59:17;7.80;99.90
52044;DHT22;38053;53.100;6.078;2023-03-03T12:01:56;8.00;99.90
52044;DHT22;38053;53.100;6.078;2023-03-03T12:04:41;8.10;99.90
52044;DHT22;38053;53.100;6.078;2023-03-03T12:13:08;8.30;99.90
52044;DHT22;38053;53.100;6.078;2023-03-03T12:15:47;8.30;99.90
52044;DHT22;38053;53.100;6.078;2023-03-03T12:18:54;8.20;99.90
52044;DHT22;38053;53.100;6.078;2023-03-03T12:24:33;8.30;99.90
52044;DHT22;38053;53.100;6.078;2023-03-03T12:28:08;8.30;99.90
52044;DHT22;38053;53.100;6.078;2023-03-03T12:33:14;8.20;99.90
52044;DHT22;38053;53.100;6.078;2023-03-03T12:36:14;8.10;99.90
52044;DHT22;38053;53.100;6.078;2023-03-03T12:38:56;8.30;99.90
52044;DHT22;38053;53.100;6.078;2023-03-03T13:06:31;9.80;99.90
52044;DHT22;38053;53.100;6.078;2023-03-03T13:09:20;9.40;99.90
52044;DHT22;38053;53.100;6.078;2023-03-03T13:12:05;9.20;99.90
52044;DHT22;38053;53.100;6.078;2023-03-03T13:15:06;9.10;99.90
52044;DHT22;38053;53.100;6.078;2023-03-03T13:20:42;9.00;99.90
52044;DHT22;38053;53.100;6.078;2023-03-03T13:23:39;8.80;99.90
52044;DHT22;38053;53.100;6.078;2023-03-03T13:29:18;8.90;99.90
52044;DHT22;38053;53.100;6.078;2023-03-03T13:31:51;8.90;99.90
52044;DHT22;38053;53.100;6.078;2023-03-03T13:37:36;8.90;99.90
52044;DHT22;38053;53.100;6.078;2023-03-03T13:40:27;8.90;99.90
52044;DHT22;38053;53.100;6.078;2023-03-03T13:43:08;8.70;99.90
52044;DHT22;38053;53.100;6.078;2023-03-03T13:46:02;8.80;99.90
52044;DHT22;38053;53.100;6.078;2023-03-03T13:57:22;8.60;99.90
52044;DHT22;38053;53.100;6.078;2023-03-03T14:05:50;8.40;99.90
52044;DHT22;38053;53.100;6.078;2023-03-03T14:11:18;8.20;99.90
52044;DHT22;38053;53.100;6.078;2023-03-03T14:14:10;8.10;99.90
52044;DHT22;38053;53.100;6.078;2023-03-03T14:17:02;8.10;99.90
52044;DHT22;38053;53.100;6.078;2023-03-03T14:19:35;8.10;99.90
52044;DHT22;38053;53.100;6.078;2023-03-03T14:25:13;8.00;99.90
52044;DHT22;38053;53.100;6.078;2023-03-03T14:30:29;7.90;99.90
52044;DHT22;38053;53.100;6.078;2023-03-03T14:35:37;7.70;99.90
52044;DHT22;38053;53.100;6.078;2023-03-03T14:38:13;7.50;99.90
52044;DHT22;38053;53.100;6.078;2023-03-03T14:40:41;7.60;99.90
52044;DHT22;38053;53.100;6.078;2023-03-03T14:43:33;7.60;99.90
52044;DHT22;38053;53.100;6.078;2023-03-03T14:48:53;7.60;99.90
52044;DHT22;38053;53.100;6.078;2023-03-03T14:51:24;7.50;99.90
52044;DHT22;38053;53.100;6.078;2023-03-03T14:53:54;7.50;99.90
52044;DHT22;38053;53.100;6.078;2023-03-03T14:56:32;7.60;99.90
52044;DHT22;38053;53.100;6.078;2023-03-03T14:59:17;7.60;99.90
52044;DHT22;38053;53.100;6.078;2023-03-03T15:01:44;7.50;99.90
52044;DHT22;38053;53.100;6.078;2023-03-03T15:06:47;7.40;99.90
52044;DHT22;38053;53.100;6.078;2023-03-03T15:09:36;7.30;99.90
52044;DHT22;38053;53.100;6.078;2023-03-03T15:17:38;7.40;99.90
52044;DHT22;38053;53.100;6.078;2023-03-03T15:26:23;7.30;99.90
52044;DHT22;38053;53.100;6.078;2023-03-03T15:28:56;7.20;99.90
52044;DHT22;38053;53.100;6.078;2023-03-03T15:34:25;7.20;99.90
52044;DHT22;38053;53.100;6.078;2023-03-03T15:39:46;7.10;99.90
52044;DHT22;38053;53.100;6.078;2023-03-03T15:42:26;7.10;99.90
52044;DHT22;38053;53.100;6.078;2023-03-03T15:48:19;7.10;99.90
52044;DHT22;38053;53.100;6.078;2023-03-03T15:53:36;7.10;99.90
52044;DHT22;38053;53.100;6.078;2023-03-03T15:56:41;7.10;99.90
52044;DHT22;38053;53.100;6.078;2023-03-03T15:59:41;7.00;99.90
52044;DHT22;38053;53.100;6.078;2023-03-03T16:02:42;7.00;99.90
52044;DHT22;38053;53.100;6.078;2023-03-03T16:06:02;6.90;99.90
52044;DHT22;38053;53.100;6.078;2023-03-03T16:08:48;7.00;99.90
52044;DHT22;38053;53.100;6.078;2023-03-03T16:11:31;6.90;99.90
52044;DHT22;38053;53.100;6.078;2023-03-03T16:20:18;6.90;99.90
52044;DHT22;38053;53.100;6.078;2023-03-03T16:23:30;6.90;99.90
52044;DHT22;38053;53.100;6.078;2023-03-03T16:26:06;6.90;99.90
52044;DHT22;38053;53.100;6.078;2023-03-03T16:28:50;6.90;99.90
52044;DHT22;38053;53.100;6.078;2023-03-03T16:31:23;6.80;99.90
52044;DHT22;38053;53.100;6.078;2023-03-03T16:36:43;6.80;99.90
52044;DHT22;38053;53.100;6.078;2023-03-03T16:42:29;6.80;99.90
52044;DHT22;38053;53.100;6.078;2023-03-03T16:45:25;6.70;99.90
52044;DHT22;38053;53.100;6.078;2023-03-03T16:51:37;6.60;99.90
52044;DHT22;38053;53.100;6.078;2023-03-03T16:56:47;6.50;99.90
52044;DHT22;38053;53.100;6.078;2023-03-03T16:59:32;6.50;99.90
52044;DHT22;38053;53.100;6.078;2023-03-03T17:07:43;6.40;99.90
52044;DHT22;38053;53.100;6.078;2023-03-03T17:10:32;6.40;99.90
52044;DHT22;38053;53.100;6.078;2023-03-03T17:16:21;6.40;99.90
52044;DHT22;38053;53.100;6.078;2023-03-03T17:24:54;6.40;99.90
52044;DHT22;38053;53.100;6.078;2023-03-03T17:27:58;6.40;99.90
52044;DHT22;38053;53.100;6.078;2023-03-03T17:39:37;6.20;99.90
52044;DHT22;38053;53.100;6.078;2023-03-03T17:45:11;6.20;99.90
52044;DHT22;38053;53.100;6.078;2023-03-03T17:47:50;6.30;99.90
52044;DHT22;38053;53.100;6.078;2023-03-03T17:50:32;6.20;99.90
52044;DHT22;38053;53.100;6.078;2023-03-03T17:56:04;6.20;99.90
52044;DHT22;38053;53.100;6.078;2023-03-03T17:58:57;6.20;99.90
52044;DHT22;38053;53.100;6.078;2023-03-03T18:14:09;6.20;99.90
52044;DHT22;38053;53.100;6.078;2023-03-03T18:16:43;6.20;99.90
52044;DHT22;38053;53.100;6.078;2023-03-03T18:22:41;6.20;99.90
52044;DHT22;38053;53.100;6.078;2023-03-03T18:25:13;6.20;99.90
52044;DHT22;38053;53.100;6.078;2023-03-03T18:27:47;6.20;99.90
52044;DHT22;38053;53.100;6.078;2023-03-03T18:30:57;6.20;99.90
52044;DHT22;38053;53.100;6.078;2023-03-03T18:34:01;6.10;99.90
52044;DHT22;38053;53.100;6.078;2023-03-03T18:38:57;6.10;99.90
52044;DHT22;38053;53.100;6.078;2023-03-03T18:41:30;6.10;99.90
52044;DHT22;38053;53.100;6.078;2023-03-03T18:44:29;6.10;99.90
52044;DHT22;38053;53.100;6.078;2023-03-03T18:46:55;6.10;99.90
52044;DHT22;38053;53.100;6.078;2023-03-03T18:53:06;6.10;99.90
52044;DHT22;38053;53.100;6.078;2023-03-03T18:55:45;6.00;99.90
52044;DHT22;38053;53.100;6.078;2023-03-03T19:00:48;6.10;99.90
52044;DHT22;38053;53.100;6.078;2023-03-03T19:05:58;6.10;99.90
52044;DHT22;38053;53.100;6.078;2023-03-03T19:09:16;6.10;99.90
52044;DHT22;38053;53.100;6.078;2023-03-03T19:11:37;6.10;99.90
52044;DHT22;38053;53.100;6.078;2023-03-03T19:14:29;6.00;99.90
52044;DHT22;38053;53.100;6.078;2023-03-03T19:16:57;6.10;99.90
52044;DHT22;38053;53.100;6.078;2023-03-03T19:19:28;6.10;99.90
52044;DHT22;38053;53.100;6.078;2023-03-03T19:22:26;6.00;99.90
52044;DHT22;38053;53.100;6.078;2023-03-03T19:25:24;6.00;99.90
52044;DHT22;38053;53.100;6.078;2023-03-03T19:28:30;6.00;99.90
52044;DHT22;38053;53.100;6.078;2023-03-03T19:31:15;6.00;99.90
52044;DHT22;38053;53.100;6.078;2023-03-03T19:36:29;5.90;99.90
52044;DHT22;38053;53.100;6.078;2023-03-03T19:45:18;5.90;99.90
52044;DHT22;38053;53.100;6.078;2023-03-03T19:48:03;5.90;99.90
52044;DHT22;38053;53.100;6.078;2023-03-03T19:51:13;5.90;99.90
52044;DHT22;38053;53.100;6.078;2023-03-03T20:16:03;5.90;99.90
52044;DHT22;38053;53.100;6.078;2023-03-03T20:37:08;5.90;99.90
52044;DHT22;38053;53.100;6.078;2023-03-03T20:50:57;5.90;99.90
52044;DHT22;38053;53.100;6.078;2023-03-03T21:05:13;6.00;99.90
52044;DHT22;38053;53.100;6.078;2023-03-03T21:07:50;6.00;99.90
52044;DHT22;38053;53.100;6.078;2023-03-03T21:10:19;5.90;99.90
52044;DHT22;38053;53.100;6.078;2023-03-03T21:12:53;6.00;99.90
52044;DHT22;38053;53.100;6.078;2023-03-03T21:15:26;6.00;99.90
52044;DHT22;38053;53.100;6.078;2023-03-03T21:17:53;6.00;99.90
52044;DHT22;38053;53.100;6.078;2023-03-03T21:22:50;6.00;99.90
52044;DHT22;38053;53.100;6.078;2023-03-03T21:28:18;6.00;99.90
52044;DHT22;38053;53.100;6.078;2023-03-03T21:38:52;6.00;99.90
52044;DHT22;38053;53.100;6.078;2023-03-03T21:41:21;6.00;99.90
52044;DHT22;38053;53.100;6.078;2023-03-03T21:43:49;6.00;99.90
52044;DHT22;38053;53.100;6.078;2023-03-03T21:46:23;6.00;99.90
52044;DHT22;38053;53.100;6.078;2023-03-03T21:48:50;5.90;99.90
52044;DHT22;38053;53.100;6.078;2023-03-03T21:51:16;5.90;99.90
52044;DHT22;38053;53.100;6.078;2023-03-03T21:53:43;5.90;99.90
52044;DHT22;38053;53.100;6.078;2023-03-03T21:56:10;5.90;99.90
52044;DHT22;38053;53.100;6.078;2023-03-03T21:58:40;5.90;99.90
52044;DHT22;38053;53.100;6.078;2023-03-03T22:01:09;5.90;99.90
52044;DHT22;38053;53.100;6.078;2023-03-03T22:03:35;5.90;99.90
52044;DHT22;38053;53.100;6.078;2023-03-03T22:06:05;5.90;99.90
52044;DHT22;38053;53.100;6.078;2023-03-03T22:08:31;5.90;99.90
52044;DHT22;38053;53.100;6.078;2023-03-03T22:11:00;5.90;99.90
52044;DHT22;38053;53.100;6.078;2023-03-03T22:13:26;5.90;99.90
52044;DHT22;38053;53.100;6.078;2023-03-03T22:15:52;5.90;99.90
52044;DHT22;38053;53.100;6.078;2023-03-03T22:18:19;5.90;99.90
52044;DHT22;38053;53.100;6.078;2023-03-03T22:20:46;5.90;99.90
52044;DHT22;38053;53.100;6.078;2023-03-03T22:23:14;5.90;99.90
52044;DHT22;38053;53.100;6.078;2023-03-03T22:25:40;5.90;99.90
52044;DHT22;38053;53.100;6.078;2023-03-03T22:28:06;5.80;99.90
52044;DHT22;38053;53.100;6.078;2023-03-03T22:30:31;5.80;99.90
52044;DHT22;38053;53.100;6.078;2023-03-03T22:32:57;5.90;99.90